sensor_id;sensor_type;location;lat;lon;timestamp;temperature;humidity
13464;DHT22;6804;48.774;9.174;2023-07-29T00:00:34;19.30;99.90
13464;DHT22;6804;48.774;9.174;2023-07-29T00:03:06;19.30;99.90
13464;DHT22;6804;48.774;9.174;2023-07-29T00:05:36;19.30;99.90
13464;DHT22;6804;48.774;9.174;2023-07-29T00:08:05;19.40;99.90
13464;DHT22;6804;48.774;9.174;2023-07-29T00:10:38;19.40;99.90
13464;DHT22;6804;48.774;9.174;2023-07-29T00:13:09;19.40;99.90
13464;DHT22;6804;48.774;9.174;2023-07-29T00:15:38;19.40;99.90
13464;DHT22;6804;48.774;9.174;2023-07-29T00:18:07;19.40;99.90
13464;DHT22;6804;48.774;9.174;2023-07-29T00:20:35;19.40;99.90
13464;DHT22;6804;48.774;9.174;2023-07-29T00:23:05;19.40;99.90
13464;DHT22;6804;48.774;9.174;2023-07-29T00:25:33;19.40;99.90
13464;DHT22;6804;48.774;9.174;2023-07-29T00:28:01;19.40;99.90
13464;DHT22;6804;48.774;9.174;2023-07-29T00:30:28;19.30;99.90
13464;DHT22;6804;48.774;9.174;2023-07-29T00:32:55;19.40;99.90
13464;DHT22;6804;48.774;9.174;2023-07-29T00:35:27;19.40;99.90
13464;DHT22;6804;48.774;9.174;2023-07-29T00:37:55;19.40;99.90
13464;DHT22;6804;48.774;9.174;2023-07-29T00:40:23;19.40;99.90
13464;DHT22;6804;48.774;9.174;2023-07-29T00:42:51;19.40;99.90
13464;DHT22;6804;48.774;9.174;2023-07-29T00:45:20;19.40;99.90
13464;DHT22;6804;48.774;9.174;2023-07-29T00:47:48;19.40;99.90
13464;DHT22;6804;48.774;9.174;2023-07-29T00:50:16;19.40;99.90
13464;DHT22;6804;48.774;9.174;2023-07-29T00:52:45;19.40;99.90
13464;DHT22;6804;48.774;9.174;2023-07-29T00:55:19;19.40;99.90
13464;DHT22;6804;48.774;9.174;2023-07-29T00:57:48;19.40;99.90
13464;DHT22;6804;48.774;9.174;2023-07-29T01:00:17;19.40;99.90
13464;DHT22;6804;48.774;9.174;2023-07-29T01:02:45;19.40;99.90
13464;DHT22;6804;48.774;9.174;2023-07-29T01:05:25;19.40;99.90
13464;DHT22;6804;48.774;9.174;2023-07-29T01:08:16;19.40;99.90
13464;DHT22;6804;48.774;9.174;2023-07-29T01:10:51;19.40;99.90
13464;DHT22;6804;48.774;9.174;2023-07-29T01:13:27;19.40;99.90
13464;DHT22;6804;48.774;9.174;2023-07-29T01:16:00;19.40;99.90
13464;DHT22;6804;48.774;9.174;2023-07-29T01:18:31;19.40;99.90
13464;DHT22;6804;48.774;9.174;2023-07-29T01:21:04;19.40;99.90
13464;DHT22;6804;48.774;9.174;2023-07-29T01:23:34;19.40;99.90
13464;DHT22;6804;48.774;9.174;2023-07-29T01:26:03;19.40;99.90
13464;DHT22;6804;48.774;9.174;2023-07-29T01:28:31;19.40;99.90
13464;DHT22;6804;48.774;9.174;2023-07-29T01:31:03;19.40;99.90
13464;DHT22;6804;48.774;9.174;2023-07-29T01:33:36;19.40;99.90
13464;DHT22;6804;48.774;9.174;2023-07-29T01:36:11;19.40;99.90
13464;DHT22;6804;48.774;9.174;2023-07-29T01:38:41;19.40;99.90
13464;DHT22;6804;48.774;9.174;2023-07-29T01:41:10;19.40;99.90
13464;DHT22;6804;48.774;9.174;2023-07-29T01:43:38;19.40;99.90
13464;DHT22;6804;48.774;9.174;2023-07-29T01:46:10;19.40;99.90
13464;DHT22;6804;48.774;9.174;2023-07-29T01:48:38;19.30;99.90
13464;DHT22;6804;48.774;9.174;2023-07-29T01:51:06;19.30;99.90
13464;DHT22;6804;48.774;9.174;2023-07-29T01:53:33;19.40;99.90
13464;DHT22;6804;48.774;9.174;2023-07-29T01:56:02;19.30;99.90
13464;DHT22;6804;48.774;9.174;2023-07-29T01:58:29;19.30;99.90
13464;DHT22;6804;48.774;9.174;2023-07-29T02:00:57;19.30;99.90
13464;DHT22;6804;48.774;9.174;2023-07-29T02:03:27;19.30;99.90
13464;DHT22;6804;48.774;9.174;2023-07-29T02:05:59;19.30;99.90
13464;DHT22;6804;48.774;9.174;2023-07-29T02:08:27;19.30;99.90
13464;DHT22;6804;48.774;9.174;2023-07-29T02:10:56;19.30;99.90
13464;DHT22;6804;48.774;9.174;2023-07-29T02:13:29;19.30;99.90
13464;DHT22;6804;48.774;9.174;2023-07-29T02:15:58;19.30;99.90
13464;DHT22;6804;48.774;9.174;2023-07-29T02:18:26;19.30;99.90
13464;DHT22;6804;48.774;9.174;2023-07-29T02:20:54;19.30;99.90
13464;DHT22;6804;48.774;9.174;2023-07-29T02:23:23;19.30;99.90
13464;DHT22;6804;48.774;9.174;2023-07-29T02:25:50;19.30;99.90
13464;DHT22;6804;48.774;9.174;2023-07-29T02:28:18;19.30;99.90
13464;DHT22;6804;48.774;9.174;2023-07-29T02:31:14;19.30;99.90
13464;DHT22;6804;48.774;9.174;2023-07-29T02:33:41;19.20;99.90
13464;DHT22;6804;48.774;9.174;2023-07-29T02:36:12;19.30;99.90
13464;DHT22;6804;48.774;9.174;2023-07-29T02:38:42;19.20;99.90
13464;DHT22;6804;48.774;9.174;2023-07-29T02:41:11;19.30;99.90
13464;DHT22;6804;48.774;9.174;2023-07-29T02:43:39;19.20;99.90
13464;DHT22;6804;48.774;9.174;2023-07-29T02:46:08;19.20;99.90
13464;DHT22;6804;48.774;9.174;2023-07-29T02:48:39;19.20;99.90
13464;DHT22;6804;48.774;9.174;2023-07-29T02:51:06;19.20;99.90
13464;DHT22;6804;48.774;9.174;2023-07-29T02:53:34;19.20;99.90
13464;DHT22;6804;48.774;9.174;2023-07-29T02:56:02;19.20;99.90
13464;DHT22;6804;48.774;9.174;2023-07-29T02:58:30;19.20;99.90
13464;DHT22;6804;48.774;9.174;2023-07-29T03:01:01;19.20;99.90
13464;DHT22;6804;48.774;9.174;2023-07-29T03:03:33;19.20;99.90
13464;DHT22;6804;48.774;9.174;2023-07-29T03:06:05;19.20;99.90
13464;DHT22;6804;48.774;9.174;2023-07-29T03:08:33;19.30;99.90
13464;DHT22;6804;48.774;9.174;2023-07-29T03:11:05;19.30;99.90
13464;DHT22;6804;48.774;9.174;2023-07-29T03:13:33;19.30;99.90
13464;DHT22;6804;48.774;9.174;2023-07-29T03:16:07;19.30;99.90
13464;DHT22;6804;48.774;9.174;2023-07-29T03:18:37;19.30;99.90
13464;DHT22;6804;48.774;9.174;2023-07-29T03:21:04;19.20;99.90
13464;DHT22;6804;48.774;9.174;2023-07-29T03:23:34;19.20;99.90
13464;DHT22;6804;48.774;9.174;2023-07-29T03:26:03;19.20;99.90
13464;DHT22;6804;48.774;9.174;2023-07-29T03:28:37;19.20;99.90
13464;DHT22;6804;48.774;9.174;2023-07-29T03:31:04;19.20;99.90
13464;DHT22;6804;48.774;9.174;2023-07-29T03:33:33;19.20;99.90
13464;DHT22;6804;48.774;9.174;2023-07-29T03:36:22;19.20;99.90
13464;DHT22;6804;48.774;9.174;2023-07-29T03:38:53;19.20;99.90
13464;DHT22;6804;48.774;9.174;2023-07-29T03:41:21;19.20;99.90
13464;DHT22;6804;48.774;9.174;2023-07-29T03:43:55;19.20;99.90
13464;DHT22;6804;48.774;9.174;2023-07-29T03:46:25;19.20;99.90
13464;DHT22;6804;48.774;9.174;2023-07-29T03:48:52;19.20;99.90
13464;DHT22;6804;48.774;9.174;2023-07-29T03:51:22;19.20;99.90
13464;DHT22;6804;48.774;9.174;2023-07-29T03:53:51;19.20;99.90
13464;DHT22;6804;48.774;9.174;2023-07-29T03:56:21;19.20;99.90
13464;DHT22;6804;48.774;9.174;2023-07-29T03:58:49;19.20;99.90
13464;DHT22;6804;48.774;9.174;2023-07-29T04:01:25;19.10;99.90
13464;DHT22;6804;48.774;9.174;2023-07-29T04:03:56;19.20;99.90
13464;DHT22;6804;48.774;9.174;2023-07-29T04:06:24;19.10;99.90
13464;DHT22;6804;48.774;9.174;2023-07-29T04:08:55;19.10;99.90
13464;DHT22;6804;48.774;9.174;2023-07-29T04:11:25;19.10;99.90
13464;DHT22;6804;48.774;9.174;2023-07-29T04:13:54;19.10;99.90
13464;DHT22;6804;48.774;9.174;2023-07-29T04:16:22;19.10;99.90
13464;DHT22;6804;48.774;9.174;2023-07-29T04:19:08;19.10;99.90
13464;DHT22;6804;48.774;9.174;2023-07-29T04:21:38;19.10;99.90
13464;DHT22;6804;48.774;9.174;2023-07-29T04:24:06;19.10;99.90
13464;DHT22;6804;48.774;9.174;2023-07-29T04:26:35;19.10;99.90
13464;DHT22;6804;48.774;9.174;2023-07-29T04:29:06;19.10;99.90
13464;DHT22;6804;48.774;9.174;2023-07-29T04:31:36;19.00;99.90
13464;DHT22;6804;48.774;9.174;2023-07-29T04:34:06;19.00;99.90
13464;DHT22;6804;48.774;9.174;2023-07-29T04:36:34;19.00;99.90
13464;DHT22;6804;48.774;9.174;2023-07-29T04:39:09;19.00;99.90
13464;DHT22;6804;48.774;9.174;2023-07-29T04:41:36;19.00;99.90
13464;DHT22;6804;48.774;9.174;2023-07-29T04:44:24;19.00;99.90
13464;DHT22;6804;48.774;9.174;2023-07-29T04:46:52;19.00;99.90
13464;DHT22;6804;48.774;9.174;2023-07-29T04:49:21;19.00;99.90
13464;DHT22;6804;48.774;9.174;2023-07-29T04:51:48;19.00;99.90
13464;DHT22;6804;48.774;9.174;2023-07-29T04:54:25;19.00;99.90
13464;DHT22;6804;48.774;9.174;2023-07-29T04:56:55;19.00;99.90
13464;DHT22;6804;48.774;9.174;2023-07-29T04:59:24;19.00;99.90
13464;DHT22;6804;48.774;9.174;2023-07-29T05:01:58;19.00;99.90
13464;DHT22;6804;48.774;9.174;2023-07-29T05:04:28;19.00;99.90
13464;DHT22;6804;48.774;9.174;2023-07-29T05:06:55;19.00;99.90
13464;DHT22;6804;48.774;9.174;2023-07-29T05:09:26;19.00;99.90
13464;DHT22;6804;48.774;9.174;2023-07-29T05:11:54;19.00;99.90
13464;DHT22;6804;48.774;9.174;2023-07-29T05:14:23;19.00;99.90
13464;DHT22;6804;48.774;9.174;2023-07-29T05:16:50;19.00;99.90
13464;DHT22;6804;48.774;9.174;2023-07-29T05:19:20;19.00;99.90
13464;DHT22;6804;48.774;9.174;2023-07-29T05:21:50;19.00;99.90
13464;DHT22;6804;48.774;9.174;2023-07-29T05:24:20;19.00;99.90
13464;DHT22;6804;48.774;9.174;2023-07-29T05:26:50;19.00;99.90
13464;DHT22;6804;48.774;9.174;2023-07-29T05:29:17;19.10;99.90
13464;DHT22;6804;48.774;9.174;2023-07-29T05:31:44;19.10;99.90
13464;DHT22;6804;48.774;9.174;2023-07-29T05:34:16;19.10;99.90
13464;DHT22;6804;48.774;9.174;2023-07-29T05:36:46;19.20;99.90
13464;DHT22;6804;48.774;9.174;2023-07-29T05:39:13;19.20;99.90
13464;DHT22;6804;48.774;9.174;2023-07-29T05:41:46;19.20;99.90
13464;DHT22;6804;48.774;9.174;2023-07-29T05:44:15;19.20;99.90
13464;DHT22;6804;48.774;9.174;2023-07-29T05:47:01;19.20;99.90
13464;DHT22;6804;48.774;9.174;2023-07-29T05:49:29;19.30;99.90
13464;DHT22;6804;48.774;9.174;2023-07-29T05:51:58;19.30;99.90
13464;DHT22;6804;48.774;9.174;2023-07-29T05:54:26;19.30;99.90
13464;DHT22;6804;48.774;9.174;2023-07-29T05:56:56;19.30;99.90
13464;DHT22;6804;48.774;9.174;2023-07-29T05:59:28;19.40;99.90
13464;DHT22;6804;48.774;9.174;2023-07-29T06:01:57;19.40;99.90
13464;DHT22;6804;48.774;9.174;2023-07-29T06:04:25;19.50;99.90
13464;DHT22;6804;48.774;9.174;2023-07-29T06:06:59;19.50;99.90
13464;DHT22;6804;48.774;9.174;2023-07-29T06:09:27;19.60;99.90
13464;DHT22;6804;48.774;9.174;2023-07-29T06:11:54;19.70;99.90
13464;DHT22;6804;48.774;9.174;2023-07-29T06:14:30;19.80;99.90
13464;DHT22;6804;48.774;9.174;2023-07-29T06:16:58;19.90;99.90
13464;DHT22;6804;48.774;9.174;2023-07-29T06:19:25;20.00;99.90
13464;DHT22;6804;48.774;9.174;2023-07-29T06:21:57;20.00;99.90
13464;DHT22;6804;48.774;9.174;2023-07-29T06:24:25;20.00;99.90
13464;DHT22;6804;48.774;9.174;2023-07-29T06:26:55;20.10;99.90
13464;DHT22;6804;48.774;9.174;2023-07-29T06:29:28;20.10;99.90
13464;DHT22;6804;48.774;9.174;2023-07-29T06:31:58;20.20;99.90
13464;DHT22;6804;48.774;9.174;2023-07-29T06:34:26;20.30;99.90
13464;DHT22;6804;48.774;9.174;2023-07-29T06:37:00;20.30;99.90
13464;DHT22;6804;48.774;9.174;2023-07-29T06:39:47;20.30;99.90
13464;DHT22;6804;48.774;9.174;2023-07-29T06:42:19;20.40;99.90
13464;DHT22;6804;48.774;9.174;2023-07-29T06:44:49;20.30;99.90
13464;DHT22;6804;48.774;9.174;2023-07-29T06:47:19;20.30;99.90
13464;DHT22;6804;48.774;9.174;2023-07-29T06:49:47;20.30;99.90
13464;DHT22;6804;48.774;9.174;2023-07-29T06:52:15;20.20;99.90
13464;DHT22;6804;48.774;9.174;2023-07-29T06:55:04;20.20;99.90
13464;DHT22;6804;48.774;9.174;2023-07-29T06:57:32;20.20;99.90
13464;DHT22;6804;48.774;9.174;2023-07-29T07:00:01;20.30;99.90
13464;DHT22;6804;48.774;9.174;2023-07-29T07:02:29;20.20;99.90
13464;DHT22;6804;48.774;9.174;2023-07-29T07:05:15;20.20;99.90
13464;DHT22;6804;48.774;9.174;2023-07-29T07:07:48;20.20;99.90
13464;DHT22;6804;48.774;9.174;2023-07-29T07:10:16;20.20;99.90
13464;DHT22;6804;48.774;9.174;2023-07-29T07:12:44;20.10;99.90
13464;DHT22;6804;48.774;9.174;2023-07-29T07:15:23;20.20;99.90
13464;DHT22;6804;48.774;9.174;2023-07-29T07:17:53;20.10;99.90
13464;DHT22;6804;48.774;9.174;2023-07-29T07:20:29;20.10;99.90
13464;DHT22;6804;48.774;9.174;2023-07-29T07:22:57;20.10;99.90
13464;DHT22;6804;48.774;9.174;2023-07-29T07:25:29;20.00;99.90
13464;DHT22;6804;48.774;9.174;2023-07-29T07:27:57;20.00;99.90
13464;DHT22;6804;48.774;9.174;2023-07-29T07:30:31;20.00;99.90
13464;DHT22;6804;48.774;9.174;2023-07-29T07:32:59;20.00;99.90
13464;DHT22;6804;48.774;9.174;2023-07-29T07:35:27;20.00;99.90
13464;DHT22;6804;48.774;9.174;2023-07-29T07:37:55;20.00;99.90
13464;DHT22;6804;48.774;9.174;2023-07-29T07:40:30;20.00;99.90
13464;DHT22;6804;48.774;9.174;2023-07-29T07:42:57;20.10;99.90
13464;DHT22;6804;48.774;9.174;2023-07-29T07:45:33;20.10;99.90
13464;DHT22;6804;48.774;9.174;2023-07-29T07:48:01;20.10;99.90
13464;DHT22;6804;48.774;9.174;2023-07-29T07:50:31;20.10;99.90
13464;DHT22;6804;48.774;9.174;2023-07-29T07:53:00;20.10;99.90
13464;DHT22;6804;48.774;9.174;2023-07-29T07:55:31;20.10;99.90
13464;DHT22;6804;48.774;9.174;2023-07-29T07:58:03;20.10;99.90
13464;DHT22;6804;48.774;9.174;2023-07-29T08:00:31;20.20;99.90
13464;DHT22;6804;48.774;9.174;2023-07-29T08:03:02;20.20;99.90
13464;DHT22;6804;48.774;9.174;2023-07-29T08:05:33;20.20;99.90
13464;DHT22;6804;48.774;9.174;2023-07-29T08:08:00;20.30;99.90
13464;DHT22;6804;48.774;9.174;2023-07-29T08:10:28;20.30;99.90
13464;DHT22;6804;48.774;9.174;2023-07-29T08:12:57;20.30;99.90
13464;DHT22;6804;48.774;9.174;2023-07-29T08:15:25;20.40;99.90
13464;DHT22;6804;48.774;9.174;2023-07-29T08:17:54;20.40;99.90
13464;DHT22;6804;48.774;9.174;2023-07-29T08:20:22;20.50;99.90
13464;DHT22;6804;48.774;9.174;2023-07-29T08:22:50;20.50;99.90
13464;DHT22;6804;48.774;9.174;2023-07-29T08:25:20;20.60;99.90
13464;DHT22;6804;48.774;9.174;2023-07-29T08:27:49;20.70;99.90
13464;DHT22;6804;48.774;9.174;2023-07-29T08:30:19;20.70;99.90
13464;DHT22;6804;48.774;9.174;2023-07-29T08:32:47;20.80;99.90
13464;DHT22;6804;48.774;9.174;2023-07-29T08:35:21;20.80;99.90
13464;DHT22;6804;48.774;9.174;2023-07-29T08:37:50;20.80;99.90
13464;DHT22;6804;48.774;9.174;2023-07-29T08:40:30;20.90;99.90
13464;DHT22;6804;48.774;9.174;2023-07-29T08:43:06;20.90;99.90
13464;DHT22;6804;48.774;9.174;2023-07-29T08:45:35;21.00;99.90
13464;DHT22;6804;48.774;9.174;2023-07-29T08:48:08;21.10;99.90
13464;DHT22;6804;48.774;9.174;2023-07-29T08:50:41;21.10;99.90
13464;DHT22;6804;48.774;9.174;2023-07-29T08:53:12;21.20;99.90
13464;DHT22;6804;48.774;9.174;2023-07-29T08:55:40;21.30;99.90
13464;DHT22;6804;48.774;9.174;2023-07-29T08:58:08;21.50;99.90
13464;DHT22;6804;48.774;9.174;2023-07-29T09:00:35;21.70;99.90
13464;DHT22;6804;48.774;9.174;2023-07-29T09:03:03;21.90;99.90
13464;DHT22;6804;48.774;9.174;2023-07-29T09:05:33;22.20;99.90
13464;DHT22;6804;48.774;9.174;2023-07-29T09:08:04;22.30;99.90
13464;DHT22;6804;48.774;9.174;2023-07-29T09:10:35;22.50;99.90
13464;DHT22;6804;48.774;9.174;2023-07-29T09:13:03;22.70;99.90
13464;DHT22;6804;48.774;9.174;2023-07-29T09:15:32;22.70;99.90
13464;DHT22;6804;48.774;9.174;2023-07-29T09:18:09;22.70;99.90
13464;DHT22;6804;48.774;9.174;2023-07-29T09:20:40;22.70;99.90
13464;DHT22;6804;48.774;9.174;2023-07-29T09:23:10;22.80;99.90
13464;DHT22;6804;48.774;9.174;2023-07-29T09:25:39;22.90;99.90
13464;DHT22;6804;48.774;9.174;2023-07-29T09:28:11;22.90;99.90
13464;DHT22;6804;48.774;9.174;2023-07-29T09:30:39;23.00;99.90
13464;DHT22;6804;48.774;9.174;2023-07-29T09:33:07;23.20;99.90
13464;DHT22;6804;48.774;9.174;2023-07-29T09:35:36;23.20;99.90
13464;DHT22;6804;48.774;9.174;2023-07-29T09:38:06;23.30;99.90
13464;DHT22;6804;48.774;9.174;2023-07-29T09:40:40;23.40;99.90
13464;DHT22;6804;48.774;9.174;2023-07-29T09:43:10;23.50;99.90
13464;DHT22;6804;48.774;9.174;2023-07-29T09:45:46;23.50;99.90
13464;DHT22;6804;48.774;9.174;2023-07-29T09:48:14;23.60;99.90
13464;DHT22;6804;48.774;9.174;2023-07-29T09:50:41;23.60;99.90
13464;DHT22;6804;48.774;9.174;2023-07-29T09:53:15;23.60;99.90
13464;DHT22;6804;48.774;9.174;2023-07-29T09:55:48;23.60;99.90
13464;DHT22;6804;48.774;9.174;2023-07-29T09:58:26;23.70;99.90
13464;DHT22;6804;48.774;9.174;2023-07-29T10:00:54;23.70;99.90
13464;DHT22;6804;48.774;9.174;2023-07-29T10:03:22;23.70;99.90
13464;DHT22;6804;48.774;9.174;2023-07-29T10:05:51;23.80;99.90
13464;DHT22;6804;48.774;9.174;2023-07-29T10:08:20;24.10;99.90
13464;DHT22;6804;48.774;9.174;2023-07-29T10:10:54;24.40;99.90
13464;DHT22;6804;48.774;9.174;2023-07-29T10:13:26;24.70;99.90
13464;DHT22;6804;48.774;9.174;2023-07-29T10:15:54;24.80;99.90
13464;DHT22;6804;48.774;9.174;2023-07-29T10:18:22;24.80;99.90
13464;DHT22;6804;48.774;9.174;2023-07-29T10:20:51;24.80;99.90
13464;DHT22;6804;48.774;9.174;2023-07-29T10:23:24;24.90;99.90
13464;DHT22;6804;48.774;9.174;2023-07-29T10:26:16;24.90;99.90
13464;DHT22;6804;48.774;9.174;2023-07-29T10:28:48;25.00;99.90
13464;DHT22;6804;48.774;9.174;2023-07-29T10:31:23;25.10;99.90
13464;DHT22;6804;48.774;9.174;2023-07-29T10:33:53;25.10;99.90
13464;DHT22;6804;48.774;9.174;2023-07-29T10:39:06;25.00;99.90
13464;DHT22;6804;48.774;9.174;2023-07-29T10:44:49;24.90;99.90
13464;DHT22;6804;48.774;9.174;2023-07-29T10:47:22;24.70;99.90
13464;DHT22;6804;48.774;9.174;2023-07-29T10:49:53;24.70;99.90
13464;DHT22;6804;48.774;9.174;2023-07-29T10:52:32;24.60;99.90
13464;DHT22;6804;48.774;9.174;2023-07-29T10:55:29;24.50;99.90
13464;DHT22;6804;48.774;9.174;2023-07-29T10:58:08;24.40;99.90
13464;DHT22;6804;48.774;9.174;2023-07-29T11:00:38;24.60;99.90
13464;DHT22;6804;48.774;9.174;2023-07-29T11:03:07;24.70;99.90
13464;DHT22;6804;48.774;9.174;2023-07-29T11:05:49;24.80;99.90
13464;DHT22;6804;48.774;9.174;2023-07-29T11:08:18;24.90;99.90
13464;DHT22;6804;48.774;9.174;2023-07-29T11:11:01;25.00;99.90
13464;DHT22;6804;48.774;9.174;2023-07-29T11:13:30;25.00;99.90
13464;DHT22;6804;48.774;9.174;2023-07-29T11:15:59;25.00;99.90
13464;DHT22;6804;48.774;9.174;2023-07-29T11:18:28;25.00;99.90
13464;DHT22;6804;48.774;9.174;2023-07-29T11:20:57;25.00;99.90
13464;DHT22;6804;48.774;9.174;2023-07-29T11:23:30;25.10;99.90
13464;DHT22;6804;48.774;9.174;2023-07-29T11:25:58;25.10;99.90
13464;DHT22;6804;48.774;9.174;2023-07-29T11:28:27;25.20;99.90
13464;DHT22;6804;48.774;9.174;2023-07-29T11:30:58;25.20;99.90
13464;DHT22;6804;48.774;9.174;2023-07-29T11:33:28;25.20;99.90
13464;DHT22;6804;48.774;9.174;2023-07-29T11:35:59;25.20;99.90
13464;DHT22;6804;48.774;9.174;2023-07-29T11:38:26;25.30;99.90
13464;DHT22;6804;48.774;9.174;2023-07-29T11:40:56;25.20;99.90
13464;DHT22;6804;48.774;9.174;2023-07-29T11:43:24;25.20;99.90
13464;DHT22;6804;48.774;9.174;2023-07-29T11:45:59;25.10;99.90
13464;DHT22;6804;48.774;9.174;2023-07-29T11:48:30;25.10;99.90
13464;DHT22;6804;48.774;9.174;2023-07-29T11:51:02;25.10;99.90
13464;DHT22;6804;48.774;9.174;2023-07-29T11:53:31;25.10;99.90
13464;DHT22;6804;48.774;9.174;2023-07-29T11:56:00;25.20;99.90
13464;DHT22;6804;48.774;9.174;2023-07-29T11:58:30;25.30;99.90
13464;DHT22;6804;48.774;9.174;2023-07-29T12:01:00;25.50;99.90
13464;DHT22;6804;48.774;9.174;2023-07-29T12:03:30;25.70;99.90
13464;DHT22;6804;48.774;9.174;2023-07-29T12:06:00;25.90;99.90
13464;DHT22;6804;48.774;9.174;2023-07-29T12:08:31;26.10;99.90
13464;DHT22;6804;48.774;9.174;2023-07-29T12:10:58;26.10;99.90
13464;DHT22;6804;48.774;9.174;2023-07-29T12:13:29;26.20;99.90
13464;DHT22;6804;48.774;9.174;2023-07-29T12:16:03;26.20;99.90
13464;DHT22;6804;48.774;9.174;2023-07-29T12:18:31;25.80;99.90
13464;DHT22;6804;48.774;9.174;2023-07-29T12:20:59;25.70;99.90
13464;DHT22;6804;48.774;9.174;2023-07-29T12:23:30;25.80;99.90
13464;DHT22;6804;48.774;9.174;2023-07-29T12:25:58;25.90;99.90
13464;DHT22;6804;48.774;9.174;2023-07-29T12:28:29;25.90;99.90
13464;DHT22;6804;48.774;9.174;2023-07-29T12:30:58;26.10;99.90
13464;DHT22;6804;48.774;9.174;2023-07-29T12:33:35;26.20;99.90
13464;DHT22;6804;48.774;9.174;2023-07-29T12:36:08;26.40;99.90
13464;DHT22;6804;48.774;9.174;2023-07-29T12:38:39;26.50;99.90
13464;DHT22;6804;48.774;9.174;2023-07-29T12:41:09;26.50;99.90
13464;DHT22;6804;48.774;9.174;2023-07-29T12:43:37;26.70;99.90
13464;DHT22;6804;48.774;9.174;2023-07-29T12:46:05;27.00;99.90
13464;DHT22;6804;48.774;9.174;2023-07-29T12:48:40;27.10;99.90
13464;DHT22;6804;48.774;9.174;2023-07-29T12:51:08;27.20;99.90
13464;DHT22;6804;48.774;9.174;2023-07-29T12:53:37;27.30;99.90
13464;DHT22;6804;48.774;9.174;2023-07-29T12:56:06;27.50;99.90
13464;DHT22;6804;48.774;9.174;2023-07-29T12:58:34;27.40;99.90
13464;DHT22;6804;48.774;9.174;2023-07-29T13:01:05;27.40;99.90
13464;DHT22;6804;48.774;9.174;2023-07-29T13:03:33;27.20;99.90
13464;DHT22;6804;48.774;9.174;2023-07-29T13:06:02;27.20;99.90
13464;DHT22;6804;48.774;9.174;2023-07-29T13:08:31;27.30;99.90
13464;DHT22;6804;48.774;9.174;2023-07-29T13:11:02;27.30;99.90
13464;DHT22;6804;48.774;9.174;2023-07-29T13:13:31;27.30;99.90
13464;DHT22;6804;48.774;9.174;2023-07-29T13:16:02;27.30;99.90
13464;DHT22;6804;48.774;9.174;2023-07-29T13:18:30;27.20;99.90
13464;DHT22;6804;48.774;9.174;2023-07-29T13:20:57;27.20;99.90
13464;DHT22;6804;48.774;9.174;2023-07-29T13:23:33;27.10;99.90
13464;DHT22;6804;48.774;9.174;2023-07-29T13:26:03;27.20;99.90
13464;DHT22;6804;48.774;9.174;2023-07-29T13:28:31;27.20;99.90
13464;DHT22;6804;48.774;9.174;2023-07-29T13:31:02;27.20;99.90
13464;DHT22;6804;48.774;9.174;2023-07-29T13:33:30;27.10;99.90
13464;DHT22;6804;48.774;9.174;2023-07-29T13:36:01;27.00;99.90
13464;DHT22;6804;48.774;9.174;2023-07-29T13:38:33;27.10;99.90
13464;DHT22;6804;48.774;9.174;2023-07-29T13:41:01;27.00;99.90
13464;DHT22;6804;48.774;9.174;2023-07-29T13:43:31;26.90;99.90
13464;DHT22;6804;48.774;9.174;2023-07-29T13:46:01;26.90;99.90
13464;DHT22;6804;48.774;9.174;2023-07-29T13:48:30;26.80;99.90
13464;DHT22;6804;48.774;9.174;2023-07-29T13:50:59;26.80;99.90
13464;DHT22;6804;48.774;9.174;2023-07-29T13:53:28;26.80;99.90
13464;DHT22;6804;48.774;9.174;2023-07-29T13:56:00;26.60;99.90
13464;DHT22;6804;48.774;9.174;2023-07-29T13:58:33;26.60;99.90
13464;DHT22;6804;48.774;9.174;2023-07-29T14:01:01;26.60;99.90
13464;DHT22;6804;48.774;9.174;2023-07-29T14:03:33;26.60;99.90
13464;DHT22;6804;48.774;9.174;2023-07-29T14:06:02;26.60;99.90
13464;DHT22;6804;48.774;9.174;2023-07-29T14:08:33;26.70;99.90
13464;DHT22;6804;48.774;9.174;2023-07-29T14:11:03;26.70;99.90
13464;DHT22;6804;48.774;9.174;2023-07-29T14:13:32;26.70;99.90
13464;DHT22;6804;48.774;9.174;2023-07-29T14:16:01;26.70;99.90
13464;DHT22;6804;48.774;9.174;2023-07-29T14:18:31;26.70;99.90
13464;DHT22;6804;48.774;9.174;2023-07-29T14:20:59;26.80;99.90
13464;DHT22;6804;48.774;9.174;2023-07-29T14:23:28;26.80;99.90
13464;DHT22;6804;48.774;9.174;2023-07-29T14:26:02;26.90;99.90
13464;DHT22;6804;48.774;9.174;2023-07-29T14:28:33;26.90;99.90
13464;DHT22;6804;48.774;9.174;2023-07-29T14:31:01;27.00;99.90
13464;DHT22;6804;48.774;9.174;2023-07-29T14:33:30;27.00;99.90
13464;DHT22;6804;48.774;9.174;2023-07-29T14:35:59;27.00;99.90
13464;DHT22;6804;48.774;9.174;2023-07-29T14:38:27;26.90;99.90
13464;DHT22;6804;48.774;9.174;2023-07-29T14:40:56;26.80;99.90
13464;DHT22;6804;48.774;9.174;2023-07-29T14:43:25;26.60;99.90
13464;DHT22;6804;48.774;9.174;2023-07-29T14:45:54;26.60;99.90
13464;DHT22;6804;48.774;9.174;2023-07-29T14:48:22;26.50;99.90
13464;DHT22;6804;48.774;9.174;2023-07-29T14:50:51;26.40;99.90
13464;DHT22;6804;48.774;9.174;2023-07-29T14:53:22;26.30;99.90
13464;DHT22;6804;48.774;9.174;2023-07-29T14:55:54;26.30;99.90
13464;DHT22;6804;48.774;9.174;2023-07-29T14:58:22;26.20;99.90
13464;DHT22;6804;48.774;9.174;2023-07-29T15:00:52;26.20;99.90
13464;DHT22;6804;48.774;9.174;2023-07-29T15:03:21;26.20;99.90
13464;DHT22;6804;48.774;9.174;2023-07-29T15:05:52;26.20;99.90
13464;DHT22;6804;48.774;9.174;2023-07-29T15:08:23;26.30;99.90
13464;DHT22;6804;48.774;9.174;2023-07-29T15:10:53;26.30;99.90
13464;DHT22;6804;48.774;9.174;2023-07-29T15:13:24;26.30;99.90
13464;DHT22;6804;48.774;9.174;2023-07-29T15:15:56;26.30;99.90
13464;DHT22;6804;48.774;9.174;2023-07-29T15:18:25;26.30;99.90
13464;DHT22;6804;48.774;9.174;2023-07-29T15:20:56;26.30;99.90
13464;DHT22;6804;48.774;9.174;2023-07-29T15:23:29;26.30;99.90
13464;DHT22;6804;48.774;9.174;2023-07-29T15:26:00;26.30;99.90
13464;DHT22;6804;48.774;9.174;2023-07-29T15:28:32;26.30;99.90
13464;DHT22;6804;48.774;9.174;2023-07-29T15:31:05;26.30;99.90
13464;DHT22;6804;48.774;9.174;2023-07-29T15:33:36;26.40;99.90
13464;DHT22;6804;48.774;9.174;2023-07-29T15:36:05;26.40;99.90
13464;DHT22;6804;48.774;9.174;2023-07-29T15:38:34;26.50;99.90
13464;DHT22;6804;48.774;9.174;2023-07-29T15:41:06;26.50;99.90
13464;DHT22;6804;48.774;9.174;2023-07-29T15:43:36;26.60;99.90
13464;DHT22;6804;48.774;9.174;2023-07-29T15:46:07;26.70;99.90
13464;DHT22;6804;48.774;9.174;2023-07-29T15:48:39;26.80;99.90
13464;DHT22;6804;48.774;9.174;2023-07-29T15:51:09;26.70;99.90
13464;DHT22;6804;48.774;9.174;2023-07-29T15:53:37;26.70;99.90
13464;DHT22;6804;48.774;9.174;2023-07-29T15:56:09;26.80;99.90
13464;DHT22;6804;48.774;9.174;2023-07-29T15:58:58;26.90;99.90
13464;DHT22;6804;48.774;9.174;2023-07-29T16:01:28;26.80;99.90
13464;DHT22;6804;48.774;9.174;2023-07-29T16:03:57;26.80;99.90
13464;DHT22;6804;48.774;9.174;2023-07-29T16:06:26;26.80;99.90
13464;DHT22;6804;48.774;9.174;2023-07-29T16:08:55;26.90;99.90
13464;DHT22;6804;48.774;9.174;2023-07-29T16:11:27;26.90;99.90